Time;durP1;ratioP1;P1;durP2;ratioP2;P2;SDS_P1;SDS_P2;PMS_P1;PMS_P2;Temp;Humidity;BMP_temperature;BMP_pressure;BME280_temperature;BME280_humidity;BME280_pressure;Samples;Min_cycle;Max_cycle;Signal;HPM_P1;HPM_P2
2024/03/23 00:01:35;;;;;;;239.23;104.67;;;8.70;99.90;10.60;96453.00;;;;5000893;28;20718;-69
2024/03/23 00:04:28;;;;;;;238.50;105.13;;;8.70;99.90;10.30;96451.00;;;;5001111;28;20706;-68
2024/03/23 00:07:20;;;;;;;238.10;103.90;;;8.60;99.90;10.40;96456.00;;;;5007396;28;20255;-68
2024/03/23 00:10:14;;;;;;;232.40;100.63;;;8.60;99.90;10.10;96446.00;;;;4989395;28;20212;-69
2024/03/23 00:13:06;;;;;;;236.23;103.50;;;8.50;99.90;10.30;96434.00;;;;4995994;28;20226;-68
2024/03/23 00:16:00;;;;;;;236.23;101.70;;;8.50;99.90;10.30;96436.00;;;;5001785;28;20209;-69
2024/03/23 00:18:52;;;;;;;243.47;106.80;;;8.50;99.90;10.50;96439.00;;;;4999419;28;20574;-68
2024/03/23 00:21:46;;;;;;;237.90;101.77;;;8.40;99.90;10.20;96430.00;;;;4997887;28;20309;-69
2024/03/23 00:24:39;;;;;;;243.23;104.63;;;8.40;99.90;10.30;96443.00;;;;4993202;28;20234;-70
2024/03/23 00:27:33;;;;;;;245.87;107.97;;;8.40;99.90;10.10;96432.00;;;;5005790;28;20213;-68
2024/03/23 00:30:25;;;;;;;234.33;99.03;;;8.30;99.90;10.30;96429.00;;;;5011582;28;20286;-69
2024/03/23 00:33:19;;;;;;;231.90;98.33;;;8.30;99.90;10.10;96418.00;;;;5000447;28;20235;-69
2024/03/23 00:36:12;;;;;;;243.83;106.40;;;8.20;99.90;10.10;96419.00;;;;4991142;28;20198;-69
2024/03/23 00:39:05;;;;;;;235.73;101.47;;;8.20;99.90;10.30;96414.00;;;;5000096;28;20206;-69
2024/03/23 00:41:58;;;;;;;237.70;101.63;;;8.20;99.90;10.20;96406.00;;;;5000508;28;20603;-68
2024/03/23 00:44:50;;;;;;;231.20;100.17;;;8.30;99.90;10.10;96396.00;;;;5001878;28;20209;-69
2024/03/23 00:47:44;;;;;;;247.00;109.23;;;7.40;99.90;9.80;96400.00;;;;4994263;28;20213;-68
2024/03/23 00:50:37;;;;;;;252.23;110.37;;;8.20;99.90;9.90;96402.00;;;;4992171;28;20210;-68
2024/03/23 00:53:26;;;;;;;241.87;106.00;;;8.00;99.90;9.70;96389.00;;;;5005741;28;20236;-69
2024/03/23 00:56:13;;;;;;;235.23;99.87;;;7.90;99.90;9.40;96388.00;;;;4997249;28;20295;-68
2024/03/23 00:59:01;;;;;;;234.83;101.90;;;7.90;99.90;9.40;96386.00;;;;5002325;28;20212;-68
2024/03/23 01:01:48;;;;;;;225.23;100.00;;;7.80;99.90;9.50;96374.00;;;;5003870;28;20238;-69
2024/03/23 01:04:36;;;;;;;237.87;105.40;;;7.90;99.90;9.10;96369.00;;;;5001296;28;20216;-69
2024/03/23 01:07:23;;;;;;;231.77;102.30;;;7.50;99.90;8.90;96373.00;;;;4991900;28;20206;-70
2024/03/23 01:10:12;;;;;;;221.27;95.70;;;7.50;99.90;8.70;96369.00;;;;4992882;28;20667;-69
2024/03/23 01:12:59;;;;;;;219.93;94.67;;;7.40;99.90;8.70;96365.00;;;;4994300;28;20226;-68
2024/03/23 01:15:51;;;;;;;224.33;96.20;;;7.30;99.90;8.70;96367.00;;;;4994992;28;20208;-69
2024/03/23 01:18:38;;;;;;;227.03;100.50;;;7.20;99.90;8.80;96362.00;;;;4998138;28;20642;-69
2024/03/23 01:21:26;;;;;;;230.03;103.87;;;6.90;99.90;8.70;96359.00;;;;4992231;28;20446;-68
2024/03/23 01:24:13;;;;;;;209.80;90.90;;;7.10;99.90;8.70;96354.00;;;;4991940;28;21306;-68
2024/03/23 01:27:03;;;;;;;211.17;91.33;;;7.00;99.90;8.90;96349.00;;;;4993589;28;20236;-68
2024/03/23 01:29:52;;;;;;;213.23;90.20;;;7.10;99.90;8.90;96352.00;;;;5002971;28;20723;-69
2024/03/23 01:32:39;;;;;;;220.33;95.77;;;7.30;99.90;8.50;96353.00;;;;4994028;28;20775;-68
2024/03/23 01:35:27;;;;;;;216.47;95.70;;;6.90;99.90;8.60;96345.00;;;;5004766;28;20201;-68
2024/03/23 01:38:14;;;;;;;211.20;92.20;;;6.90;99.90;8.50;96342.00;;;;4996045;28;20212;-69
2024/03/23 01:41:02;;;;;;;220.03;93.33;;;7.10;99.90;8.20;96339.00;;;;5002081;28;20213;-68
2024/03/23 01:43:50;;;;;;;221.70;91.60;;;6.70;99.90;8.70;96340.00;;;;4997109;28;20206;-68
2024/03/23 01:46:41;;;;;;;225.70;93.40;;;6.70;99.90;8.80;96345.00;;;;5001863;28;20834;-68
2024/03/23 01:49:28;;;;;;;215.50;91.90;;;6.40;99.90;8.30;96332.00;;;;4989039;28;20215;-67
2024/03/23 01:52:16;;;;;;;216.23;89.53;;;6.70;99.90;8.00;96318.00;;;;4991387;28;20614;-69
2024/03/23 01:55:03;;;;;;;218.80;92.47;;;6.50;99.90;8.70;96319.00;;;;5006701;28;20205;-68
2024/03/23 01:57:51;;;;;;;218.30;91.50;;;6.50;99.90;9.00;96322.00;;;;4995440;28;20210;-68
2024/03/23 02:00:39;;;;;;;225.43;97.67;;;6.50;99.90;8.60;96309.00;;;;5005365;28;20217;-68
2024/03/23 02:03:28;;;;;;;220.43;95.13;;;6.60;99.90;7.80;96307.00;;;;4992610;28;20233;-69
2024/03/23 02:06:15;;;;;;;222.90;93.23;;;6.50;99.90;8.20;96295.00;;;;4989973;28;20233;-69
2024/03/23 02:09:05;;;;;;;218.43;92.07;;;6.50;99.90;8.00;96296.00;;;;4999186;28;20223;-67
2024/03/23 02:11:52;;;;;;;217.10;90.37;;;6.20;99.90;8.00;96294.00;;;;5003095;28;20713;-70
2024/03/23 02:14:40;;;;;;;227.97;95.53;;;6.40;99.90;8.40;96297.00;;;;4996871;28;20201;-68
2024/03/23 02:17:30;;;;;;;218.20;92.20;;;6.10;99.90;8.30;96285.00;;;;4997442;28;20848;-69
2024/03/23 02:20:18;;;;;;;219.17;92.30;;;6.30;99.90;8.30;96281.00;;;;4989392;28;20214;-69
2024/03/23 02:23:07;;;;;;;213.73;87.80;;;6.30;99.90;8.20;96282.00;;;;4996594;28;20236;-69
2024/03/23 02:25:54;;;;;;;211.97;87.40;;;6.10;99.90;8.30;96275.00;;;;4996664;28;20312;-69
2024/03/23 02:28:42;;;;;;;209.90;87.87;;;6.30;99.90;7.60;96268.00;;;;5006202;28;20214;-69
2024/03/23 02:31:29;;;;;;;218.53;93.00;;;6.00;99.90;7.50;96266.00;;;;5002298;28;20229;-69
2024/03/23 02:34:16;;;;;;;212.70;87.30;;;6.10;99.90;7.60;96264.00;;;;4989481;28;20201;-70
2024/03/23 02:37:11;;;;;;;215.73;88.00;;;6.10;99.90;8.10;96267.00;;;;4994834;28;20271;-69
2024/03/23 02:40:00;;;;;;;215.67;89.60;;;6.20;99.90;8.70;96263.00;;;;4996791;28;20202;-69
2024/03/23 02:42:47;;;;;;;205.30;85.37;;;6.00;99.90;7.90;96258.00;;;;4992087;28;20307;-68
2024/03/23 02:45:35;;;;;;;222.27;92.20;;;6.10;99.90;7.30;96256.00;;;;5001912;28;20599;-68
2024/03/23 02:48:22;;;;;;;210.13;89.10;;;6.30;99.90;8.00;96252.00;;;;4988954;28;20279;-69
2024/03/23 02:51:10;;;;;;;212.13;89.60;;;6.20;99.90;8.00;96253.00;;;;5001689;28;20691;-68
2024/03/23 02:53:57;;;;;;;208.50;88.57;;;5.90;99.90;7.50;96243.00;;;;4998149;28;20671;-69
2024/03/23 02:56:46;;;;;;;213.03;88.77;;;5.90;99.90;8.00;96254.00;;;;4993430;28;20209;-69
2024/03/23 02:59:33;;;;;;;208.77;88.40;;;6.00;99.90;7.90;96238.00;;;;5007598;28;20256;-69
2024/03/23 03:02:21;;;;;;;205.00;86.77;;;5.90;99.90;6.60;96235.00;;;;4995952;28;20237;-68
2024/03/23 03:05:09;;;;;;;205.00;85.80;;;5.70;99.90;7.90;96237.00;;;;4985937;28;20665;-69
2024/03/23 03:07:56;;;;;;;201.97;84.17;;;5.70;99.90;8.10;96243.00;;;;4991232;28;20206;-69
2024/03/23 03:10:43;;;;;;;205.83;84.73;;;5.70;99.90;7.80;96228.00;;;;4994024;28;20214;-68
2024/03/23 03:13:32;;;;;;;221.53;93.63;;;5.70;99.90;6.70;96230.00;;;;5001107;28;20673;-70
2024/03/23 03:16:19;;;;;;;217.70;90.60;;;5.80;99.90;6.60;96222.00;;;;4996083;28;20683;-69
2024/03/23 03:19:07;;;;;;;216.37;87.07;;;5.30;99.90;6.40;96219.00;;;;4992502;28;20213;-67
2024/03/23 03:21:54;;;;;;;214.27;82.63;;;;;6.30;96215.00;;;;4993097;28;20353;-70
2024/03/23 03:24:42;;;;;;;218.73;86.77;;;5.10;99.90;6.10;96219.00;;;;5001089;28;20240;-70
2024/03/23 03:27:29;;;;;;;221.30;88.10;;;5.10;99.90;6.90;96223.00;;;;4997608;28;20233;-69
2024/03/23 03:30:18;;;;;;;215.60;82.47;;;5.30;99.90;7.40;96217.00;;;;4992976;28;20842;-70
2024/03/23 03:33:05;;;;;;;219.73;85.57;;;5.00;99.90;7.80;96210.00;;;;5013957;28;20231;-71
2024/03/23 03:35:53;;;;;;;218.70;85.03;;;5.30;99.90;7.90;96210.00;;;;5001337;28;20224;-70
2024/03/23 03:38:40;;;;;;;227.20;87.83;;;5.50;99.90;7.50;96205.00;;;;5000433;28;20206;-70
2024/03/23 03:41:28;;;;;;;236.37;92.70;;;5.30;99.90;6.50;96193.00;;;;4995234;28;20461;-70
2024/03/23 03:44:15;;;;;;;220.33;83.43;;;5.60;99.90;6.80;96190.00;;;;4993562;28;20248;-69
2024/03/23 03:47:05;;;;;;;216.13;84.27;;;5.50;99.90;6.90;96185.00;;;;5006668;28;20456;-68
2024/03/23 03:49:52;;;;;;;229.47;88.07;;;5.40;99.90;7.00;96181.00;;;;5000364;28;20198;-67
2024/03/23 03:52:40;;;;;;;219.43;84.57;;;5.60;99.90;6.80;96195.00;;;;5001754;28;20464;-69
2024/03/23 03:55:27;;;;;;;229.63;89.47;;;5.20;99.90;6.90;96206.00;;;;5006055;28;20433;-69
2024/03/23 03:58:15;;;;;;;222.23;85.17;;;5.30;99.90;7.10;96188.00;;;;4994636;28;20206;-68
2024/03/23 04:01:02;;;;;;;227.03;88.90;;;5.10;99.90;6.90;96177.00;;;;4998204;28;20771;-69
2024/03/23 04:03:51;;;;;;;230.57;88.60;;;5.20;99.90;7.50;96178.00;;;;4999320;28;20462;-68
2024/03/23 04:06:38;;;;;;;234.37;89.03;;;5.30;99.90;7.60;96185.00;;;;4992572;28;20227;-68
2024/03/23 04:09:26;;;;;;;229.90;87.43;;;5.60;99.90;7.40;96180.00;;;;5007456;28;20220;-69
2024/03/23 04:12:13;;;;;;;218.50;84.23;;;5.40;99.90;7.40;96191.00;;;;4990414;28;20449;-69
2024/03/23 04:15:03;;;;;;;228.30;87.27;;;5.60;99.90;7.60;96186.00;;;;4997547;28;20458;-69
2024/03/23 04:17:50;;;;;;;227.30;84.37;;;5.60;99.90;7.90;96176.00;;;;5004232;28;20203;-70
2024/03/23 04:20:39;;;;;;;241.50;90.90;;;5.40;99.90;8.00;96174.00;;;;5008181;28;20456;-70
2024/03/23 04:23:26;;;;;;;234.27;86.20;;;5.90;99.90;7.40;96183.00;;;;4995476;28;20222;-70
2024/03/23 04:26:14;;;;;;;235.77;90.13;;;5.40;99.90;6.90;96169.00;;;;4998785;28;20229;-70
2024/03/23 04:29:01;;;;;;;227.37;87.23;;;5.50;99.90;6.80;96169.00;;;;4999262;28;20216;-70
2024/03/23 04:31:49;;;;;;;224.13;85.37;;;5.70;99.90;7.00;96169.00;;;;5001669;28;20622;-70
2024/03/23 04:34:36;;;;;;;234.83;90.07;;;5.50;99.90;7.20;96165.00;;;;5008767;28;20281;-70
2024/03/23 04:37:25;;;;;;;224.20;83.60;;;5.30;99.90;7.60;96163.00;;;;4996527;28;20210;-67
2024/03/23 04:40:13;;;;;;;220.03;83.33;;;5.30;99.90;7.80;96158.00;;;;4993684;28;20202;-69
2024/03/23 04:43:01;;;;;;;228.23;86.87;;;5.70;99.90;7.60;96156.00;;;;5001171;28;20449;-69
2024/03/23 04:45:49;;;;;;;231.80;86.77;;;5.90;99.90;6.40;96146.00;;;;4996015;28;20200;-70
2024/03/23 04:48:37;;;;;;;235.87;89.90;;;5.80;99.90;7.00;96157.00;;;;4994736;28;20648;-69
2024/03/23 04:51:25;;;;;;;235.87;88.07;;;5.50;99.90;7.40;96151.00;;;;4991235;28;20229;-69
2024/03/23 04:54:15;;;;;;;228.57;83.60;;;5.80;99.90;7.30;96140.00;;;;4999992;28;20209;-68
2024/03/23 04:57:03;;;;;;;230.87;86.40;;;5.40;99.90;7.90;96147.00;;;;5005318;28;20232;-70
2024/03/23 04:59:50;;;;;;;239.20;91.63;;;5.40;99.90;7.90;96149.00;;;;4998702;28;20206;-69
2024/03/23 05:02:38;;;;;;;251.97;93.90;;;5.90;99.90;8.00;96139.00;;;;4999659;28;20244;-70
2024/03/23 05:05:26;;;;;;;238.80;91.40;;;5.80;99.90;7.20;96129.00;;;;5002864;23;20298;-87
2024/03/23 05:08:13;;;;;;;238.60;90.57;;;6.00;99.90;7.20;96121.00;;;;5024415;28;20224;-85
2024/03/23 05:11:02;;;;;;;239.30;91.43;;;5.90;99.90;7.40;96126.00;;;;5015433;28;20558;-85
2024/03/23 05:13:49;;;;;;;231.90;86.80;;;5.80;99.90;7.10;96121.00;;;;4992833;28;20686;-86
2024/03/23 05:16:37;;;;;;;243.40;91.90;;;5.70;99.90;7.50;96129.00;;;;4987397;28;20209;-88
2024/03/23 05:19:24;;;;;;;234.83;87.53;;;5.60;99.90;7.80;96135.00;;;;4989240;28;20210;-86
2024/03/23 05:22:12;;;;;;;235.97;86.17;;;5.50;99.90;8.00;96125.00;;;;4998106;28;20251;-86
2024/03/23 05:24:59;;;;;;;231.83;84.57;;;5.70;99.90;8.30;96130.00;;;;5000521;28;20630;-87
2024/03/23 05:27:48;;;;;;;248.17;90.40;;;6.00;99.90;7.60;96101.00;;;;4998816;28;20218;-86
2024/03/23 05:30:35;;;;;;;245.90;91.73;;;6.00;99.90;7.90;96107.00;;;;5001139;28;20585;-86
2024/03/23 05:33:23;;;;;;;237.37;85.20;;;6.00;99.90;7.90;96108.00;;;;4991993;28;20231;-85
2024/03/23 05:36:12;;;;;;;253.73;94.60;;;5.90;99.90;8.40;96110.00;;;;4989787;28;20213;-88
2024/03/23 05:38:59;;;;;;;248.27;91.70;;;6.10;99.90;8.30;96105.00;;;;4991145;28;20267;-87
2024/03/23 05:41:46;;;;;;;247.60;91.27;;;6.20;99.90;8.70;96097.00;;;;4992765;28;20225;-86
2024/03/23 05:44:37;;;;;;;256.17;94.13;;;6.40;99.90;8.90;96113.00;;;;4987839;28;20694;-87
2024/03/23 05:47:24;;;;;;;255.73;92.10;;;6.50;99.90;9.60;96104.00;;;;4994658;28;20296;-87
2024/03/23 05:50:12;;;;;;;253.63;90.77;;;6.50;99.90;8.70;96092.00;;;;4993398;28;20212;-88
2024/03/23 05:52:59;;;;;;;251.40;92.13;;;6.70;99.90;8.30;96095.00;;;;4987272;28;20662;-87
2024/03/23 05:55:48;;;;;;;262.23;95.73;;;6.60;99.90;8.80;96106.00;;;;5004813;28;20207;-86
2024/03/23 05:58:35;;;;;;;266.03;98.60;;;6.90;99.90;9.20;96101.00;;;;4987168;28;20691;-86
2024/03/23 06:01:28;;;;;;;268.83;99.70;;;6.90;99.90;9.50;96108.00;;;;4987297;28;20233;-87
2024/03/23 06:04:15;;;;;;;261.47;96.30;;;6.80;99.90;8.90;96106.00;;;;4993897;28;20206;-87
2024/03/23 06:07:06;;;;;;;260.20;95.33;;;6.80;99.90;8.90;96099.00;;;;4991779;28;20599;-86
2024/03/23 06:09:53;;;;;;;260.27;94.73;;;7.00;99.90;9.50;96098.00;;;;4994792;28;20208;-86
2024/03/23 06:12:41;;;;;;;267.00;96.87;;;7.30;99.90;9.40;96087.00;;;;4992544;28;20233;-86
2024/03/23 06:15:28;;;;;;;267.37;99.00;;;7.30;99.90;9.50;96083.00;;;;4993165;28;20202;-86
2024/03/23 06:18:17;;;;;;;262.87;98.43;;;7.20;99.90;9.80;96075.00;;;;4992572;28;20219;-88
2024/03/23 06:21:04;;;;;;;251.00;97.60;;;7.30;99.90;10.10;96078.00;;;;4987653;28;20713;-88
2024/03/23 06:23:53;;;;;;;280.70;103.03;;;7.60;99.90;10.50;96084.00;;;;4999839;28;20679;-88
2024/03/23 06:26:40;;;;;;;278.77;102.03;;;7.30;99.90;9.90;96084.00;;;;4998605;28;20218;-87
2024/03/23 06:29:28;;;;;;;275.97;101.73;;;7.60;99.90;9.60;96078.00;;;;4989155;28;20288;-88
2024/03/23 06:32:15;;;;;;;275.73;99.97;;;7.90;99.90;10.50;96074.00;;;;4988276;28;20244;-87
2024/03/23 06:35:08;;;;;;;278.17;99.70;;;7.80;99.90;11.00;96081.00;;;;4992363;28;20602;-87
2024/03/23 06:37:55;;;;;;;287.80;103.27;;;8.00;99.90;10.80;96074.00;;;;4988918;28;20268;-87
2024/03/23 06:40:47;;;;;;;298.53;110.40;;;8.40;99.90;10.30;96082.00;;;;4991787;28;20208;-87
2024/03/23 06:43:34;;;;;;;297.00;113.07;;;8.20;99.90;10.50;96069.00;;;;4988091;28;20209;-87
2024/03/23 06:46:22;;;;;;;282.27;101.13;;;8.30;99.90;10.90;96080.00;;;;4988008;28;20273;-87
2024/03/23 06:49:09;;;;;;;298.20;107.73;;;8.20;99.90;10.90;96078.00;;;;4989595;28;20675;-86
2024/03/23 06:51:58;;;;;;;286.43;103.77;;;8.10;99.90;11.00;96078.00;;;;4991880;28;20225;-87
2024/03/23 06:54:45;;;;;;;285.63;103.57;;;8.50;99.90;11.00;96076.00;;;;4992862;28;20206;-87
2024/03/23 06:57:33;;;;;;;308.13;118.53;;;8.50;99.90;10.70;96066.00;;;;4991867;28;20202;-87
2024/03/23 07:00:20;;;;;;;283.03;105.33;;;8.70;99.90;10.80;96064.00;;;;4998598;28;20581;-87
2024/03/23 07:03:08;;;;;;;285.17;107.27;;;8.50;99.90;11.10;96068.00;;;;4995066;28;20285;-86
2024/03/23 07:05:58;;;;;;;282.70;105.73;;;8.60;99.90;11.00;96073.00;;;;4995204;28;20229;-86
2024/03/23 07:08:48;;;;;;;287.20;108.47;;;8.70;99.90;11.50;96071.00;;;;4997959;28;20271;-87
2024/03/23 07:11:35;;;;;;;295.00;111.37;;;8.80;99.90;11.60;96073.00;;;;4992955;28;20229;-86
2024/03/23 07:14:23;;;;;;;286.10;105.77;;;8.90;99.90;11.20;96066.00;;;;4991129;28;20225;-87
2024/03/23 07:17:11;;;;;;;285.50;104.63;;;9.20;99.90;11.00;96061.00;;;;4991828;28;20216;-88
2024/03/23 07:20:00;;;;;;;292.53;108.27;;;9.00;99.90;11.90;96060.00;;;;4993503;28;20683;-87
2024/03/23 07:22:47;;;;;;;293.60;109.80;;;9.10;99.90;11.70;96049.00;;;;4994888;28;20672;-87
2024/03/23 07:25:36;;;;;;;299.90;112.60;;;8.90;99.90;11.70;96058.00;;;;4997566;28;20202;-86
2024/03/23 07:28:23;;;;;;;300.50;111.40;;;9.20;99.90;11.70;96059.00;;;;4993906;28;20722;-87
2024/03/23 07:31:13;;;;;;;303.07;115.47;;;9.30;99.90;11.80;96058.00;;;;4990067;28;20695;-87
2024/03/23 07:34:00;;;;;;;298.23;114.93;;;10.00;99.90;12.20;96060.00;;;;4997873;28;20293;-87
2024/03/23 07:36:48;;;;;;;328.03;128.20;;;9.50;99.90;12.50;96052.00;;;;4986847;28;20935;-87
2024/03/23 07:39:35;;;;;;;314.67;120.50;;;9.80;99.90;12.80;96058.00;;;;4990511;28;20413;-88
2024/03/23 07:42:26;;;;;;;308.97;117.93;;;10.00;99.90;12.90;96051.00;;;;4991076;28;20217;-88
2024/03/23 07:45:13;;;;;;;308.93;114.70;;;9.70;99.90;12.90;96045.00;;;;4991391;28;20243;-87
2024/03/23 07:48:01;;;;;;;313.63;120.73;;;10.20;99.90;13.30;96048.00;;;;4994178;28;20230;-87
2024/03/23 07:50:58;;;;;;;323.50;127.13;;;10.50;99.90;13.40;96052.00;;;;4984509;28;20721;-87
2024/03/23 07:53:48;;;;;;;332.90;127.20;;;10.60;99.90;13.20;96039.00;;;;4992420;28;20650;-87
2024/03/23 07:56:35;;;;;;;345.90;136.53;;;10.70;99.90;13.70;96045.00;;;;4988339;28;20213;-88
2024/03/23 07:59:25;;;;;;;335.67;128.83;;;10.90;99.90;13.70;96061.00;;;;4990503;28;20228;-87
2024/03/23 08:02:12;;;;;;;338.90;132.47;;;11.00;99.90;14.10;96053.00;;;;4990335;28;20703;-88
2024/03/23 08:05:00;;;;;;;335.60;127.67;;;11.20;99.90;14.20;96049.00;;;;5007874;28;20205;-87
2024/03/23 08:07:50;;;;;;;327.33;125.30;;;11.40;99.90;14.10;96039.00;;;;4994636;28;20225;-87
2024/03/23 08:10:38;;;;;;;352.77;138.53;;;11.40;99.90;14.40;96036.00;;;;4985670;28;20675;-88
2024/03/23 08:13:25;;;;;;;340.27;132.63;;;11.60;99.90;14.10;96043.00;;;;4984231;28;20238;-89
2024/03/23 08:16:14;;;;;;;353.80;136.70;;;11.90;99.90;14.70;96023.00;;;;5002599;28;20200;-87
2024/03/23 08:19:03;;;;;;;357.63;140.63;;;12.30;99.90;15.20;96022.00;;;;4989922;28;20236;-88
2024/03/23 08:21:51;;;;;;;364.43;148.23;;;12.30;99.90;15.20;96017.00;;;;4991260;28;20225;-87
2024/03/23 08:24:39;;;;;;;371.90;150.50;;;12.10;99.90;15.80;96007.00;;;;4991032;28;20236;-87
2024/03/23 08:27:27;;;;;;;354.00;140.40;;;12.70;99.90;16.10;96001.00;;;;4987240;28;20232;-87
2024/03/23 08:30:14;;;;;;;362.13;144.57;;;12.60;99.90;16.60;95996.00;;;;4988012;28;20206;-87
2024/03/23 08:33:04;;;;;;;375.90;156.03;;;13.10;99.90;17.00;95989.00;;;;4992242;28;20229;-88
2024/03/23 08:35:55;;;;;;;377.43;159.97;;;13.50;99.90;16.90;95983.00;;;;4992333;28;20222;-87
2024/03/23 08:38:43;;;;;;;402.37;179.43;;;13.80;99.90;17.40;95974.00;;;;4985148;28;20289;-88
2024/03/23 08:41:30;;;;;;;384.20;171.27;;;14.10;99.90;17.50;95970.00;;;;4992635;28;20225;-88
2024/03/23 08:44:18;;;;;;;372.80;168.97;;;14.30;99.90;17.90;95965.00;;;;4996788;28;20285;-89
2024/03/23 08:47:06;;;;;;;374.07;172.33;;;14.50;99.90;18.40;95971.00;;;;4999343;28;20231;-88
2024/03/23 08:49:57;;;;;;;374.87;182.03;;;14.80;99.90;18.70;95970.00;;;;4998391;28;20685;-89
2024/03/23 08:52:45;;;;;;;380.30;186.73;;;14.50;99.90;19.00;95962.00;;;;4991414;28;20604;-90
2024/03/23 08:55:33;;;;;;;384.17;195.40;;;15.30;99.90;19.10;95955.00;;;;4996391;28;20681;-89
2024/03/23 08:58:20;;;;;;;365.63;208.17;;;17.60;99.90;19.40;95947.00;;;;4995565;28;20281;-89
2024/03/23 09:01:10;;;;;;;369.23;212.90;;;15.80;99.90;19.70;95934.00;;;;4994312;28;20252;-89
2024/03/23 09:03:57;;;;;;;385.57;225.97;;;16.10;99.90;20.10;95925.00;;;;4995202;28;20202;-89
2024/03/23 09:06:47;;;;;;;386.70;227.47;;;16.50;99.90;20.10;95919.00;;;;4988222;28;20473;-87
2024/03/23 09:09:34;;;;;;;394.90;243.07;;;16.50;99.90;20.30;95915.00;;;;4989552;28;20312;-88
2024/03/23 09:12:22;;;;;;;392.17;253.10;;;16.90;99.70;20.90;95912.00;;;;4992822;28;20226;-89
2024/03/23 09:15:09;;;;;;;381.50;234.23;;;16.90;99.50;21.50;95908.00;;;;5003729;28;20202;-90
2024/03/23 09:17:57;;;;;;;392.17;252.97;;;17.40;99.30;21.40;95894.00;;;;4994343;28;20202;-90
2024/03/23 09:20:45;;;;;;;394.23;257.80;;;18.00;97.90;21.60;95902.00;;;;4996288;28;20216;-89
2024/03/23 09:23:34;;;;;;;395.27;267.20;;;17.90;98.30;21.80;95898.00;;;;4993913;28;20202;-90
2024/03/23 09:26:23;;;;;;;395.20;266.90;;;18.80;98.00;21.80;95894.00;;;;4998421;28;20410;-88
2024/03/23 09:29:23;;;;;;;400.47;279.30;;;18.40;95.60;21.60;95896.00;;;;5004831;28;20232;-88
2024/03/23 09:32:11;;;;;;;401.83;283.10;;;18.70;93.00;20.40;95886.00;;;;5004022;28;20222;-87
2024/03/23 09:34:58;;;;;;;398.90;281.33;;;18.40;91.60;21.30;95888.00;;;;4996327;28;20690;-86
2024/03/23 09:37:46;;;;;;;403.67;283.47;;;18.30;91.60;21.40;95877.00;;;;4997638;28;20210;-86
2024/03/23 09:40:39;;;;;;;405.97;280.87;;;18.60;91.80;21.60;95869.00;;;;5000216;28;20215;-84
2024/03/23 09:43:28;;;;;;;401.47;279.97;;;18.40;90.40;21.50;95859.00;;;;4990931;28;20240;-88
2024/03/23 09:46:23;;;;;;;411.17;288.43;;;18.90;91.40;21.90;95856.00;;;;4988893;28;20251;-90
2024/03/23 09:49:13;;;;;;;403.47;286.90;;;18.60;92.30;22.40;95843.00;;;;5002301;28;20309;-89
2024/03/23 09:52:01;;;;;;;394.83;282.50;;;18.80;91.60;22.10;95830.00;;;;5002977;28;20224;-88
2024/03/23 09:54:58;;;;;;;395.27;286.33;;;19.20;88.20;23.00;95837.00;;;;4982218;28;20630;-88
2024/03/23 09:57:47;;;;;;;414.43;308.20;;;18.60;88.20;23.30;95835.00;;;;4985523;28;20696;-87
2024/03/23 10:00:35;;;;;;;419.13;319.97;;;19.50;88.60;23.70;95812.00;;;;4991890;28;20198;-88
2024/03/23 10:03:23;;;;;;;405.03;320.20;;;19.70;86.20;24.20;95823.00;;;;4993729;28;20729;-87
2024/03/23 10:06:10;;;;;;;420.20;336.10;;;20.30;88.10;24.40;95821.00;;;;4985412;28;20221;-87
2024/03/23 10:08:58;;;;;;;423.07;344.60;;;20.50;85.90;24.30;95819.00;;;;4991091;28;20237;-88
2024/03/23 10:11:48;;;;;;;428.30;351.50;;;21.00;86.20;24.10;95822.00;;;;4992389;28;20229;-88
2024/03/23 10:14:38;;;;;;;428.60;360.57;;;20.80;83.70;24.00;95815.00;;;;4986698;28;20210;-88
2024/03/23 10:17:25;;;;;;;416.87;362.90;;;20.80;83.70;23.40;95817.00;;;;4989947;28;20721;-88
2024/03/23 10:20:13;;;;;;;407.33;347.27;;;20.60;81.80;23.50;95806.00;;;;4992194;28;20276;-88
2024/03/23 10:23:01;;;;;;;420.93;368.67;;;20.50;83.00;23.60;95813.00;;;;4993161;28;20225;-89
2024/03/23 10:25:49;;;;;;;418.10;358.53;;;20.50;83.60;24.10;95782.00;;;;5008611;28;20979;-87
2024/03/23 10:28:36;;;;;;;415.70;356.67;;;20.70;82.70;25.00;95775.00;;;;4998307;28;20230;-88
2024/03/23 10:31:26;;;;;;;427.90;366.87;;;21.00;81.60;25.40;95778.00;;;;4996486;28;20245;-88
2024/03/23 10:34:13;;;;;;;419.43;369.07;;;21.20;81.60;25.80;95785.00;;;;4992284;28;20202;-89
2024/03/23 10:37:04;;;;;;;442.60;394.60;;;21.70;81.00;25.80;95767.00;;;;4992887;28;20839;-89
2024/03/23 10:39:51;;;;;;;429.83;383.17;;;22.00;80.10;25.80;95764.00;;;;4995837;28;20205;-88
2024/03/23 10:42:40;;;;;;;437.53;389.70;;;22.30;78.30;24.30;95755.00;;;;4991261;28;20230;-85
2024/03/23 10:45:28;;;;;;;426.20;379.30;;;22.10;75.30;21.90;95752.00;;;;4987929;28;20740;-87
2024/03/23 10:48:17;;;;;;;428.07;381.23;;;21.60;74.80;23.10;95738.00;;;;4994311;28;20216;-88
2024/03/23 10:51:07;;;;;;;423.60;376.80;;;21.10;78.10;23.90;95742.00;;;;4993149;28;20576;-88
2024/03/23 10:53:56;;;;;;;422.97;371.63;;;21.10;73.50;24.90;95736.00;;;;4993422;28;20208;-87
2024/03/23 10:56:44;;;;;;;429.40;380.67;;;21.50;77.70;25.00;95734.00;;;;4994627;28;20205;-89
2024/03/23 10:59:31;;;;;;;426.30;379.50;;;22.80;81.30;25.30;95736.00;;;;4992540;28;20210;-88
2024/03/23 11:02:21;;;;;;;432.10;385.87;;;23.20;81.00;26.00;95735.00;;;;4992500;28;20277;-89
2024/03/23 11:05:31;;;;;;;463.77;413.73;;;22.20;80.30;26.00;95735.00;;;;4990353;28;20210;-89
2024/03/23 11:08:36;;;;;;;453.83;406.97;;;22.80;75.80;27.00;95731.00;;;;4994185;28;20206;-90
2024/03/23 11:11:28;;;;;;;466.57;418.63;;;23.10;77.90;26.80;95720.00;;;;4992026;28;20228;-89
2024/03/23 11:14:24;;;;;;;495.23;446.73;;;24.30;77.30;25.80;95714.00;;;;4992394;28;20286;-89
2024/03/23 11:17:11;;;;;;;498.57;449.37;;;23.30;73.40;26.50;95710.00;;;;4998023;28;20258;-90
2024/03/23 11:20:01;;;;;;;508.50;459.23;;;23.70;74.80;26.70;95687.00;;;;5024447;23;20245;-68
2024/03/23 11:22:51;;;;;;;522.60;472.03;;;23.70;69.40;27.10;95692.00;;;;5023448;28;20209;-68
2024/03/23 11:25:39;;;;;;;523.27;473.10;;;23.70;71.40;25.70;95685.00;;;;5010790;28;20229;-68
2024/03/23 11:28:27;;;;;;;517.97;469.30;;;23.70;67.30;27.20;95680.00;;;;5004215;28;20204;-68
2024/03/23 11:31:15;;;;;;;553.40;500.60;;;23.80;67.30;27.40;95691.00;;;;5007713;28;20210;-69
2024/03/23 11:34:06;;;;;;;525.40;475.90;;;24.10;66.50;26.00;95671.00;;;;5024605;28;20207;-68
2024/03/23 11:37:05;;;;;;;537.53;487.73;;;24.10;64.60;26.40;95654.00;;;;5010413;28;20235;-67
2024/03/23 11:39:53;;;;;;;540.80;490.90;;;24.00;64.40;27.80;95652.00;;;;5008521;28;20312;-67
2024/03/23 11:42:41;;;;;;;558.37;507.60;;;24.20;66.20;28.00;95646.00;;;;5008859;28;20210;-68
2024/03/23 11:45:29;;;;;;;555.50;505.73;;;24.40;65.70;28.30;95630.00;;;;5009039;28;20281;-68
2024/03/23 11:48:19;;;;;;;566.57;516.47;;;24.80;65.30;28.00;95633.00;;;;5011674;28;20921;-67
2024/03/23 11:51:06;;;;;;;588.63;537.87;;;24.80;62.70;28.40;95618.00;;;;5012822;28;20216;-67
2024/03/23 11:53:54;;;;;;;593.27;541.93;;;25.00;62.10;29.40;95612.00;;;;5011304;28;20213;-66
2024/03/23 11:56:55;;;;;;;603.17;550.83;;;25.40;62.50;24.50;95606.00;;;;5012015;28;20788;-66
2024/03/23 11:59:44;;;;;;;580.30;528.93;;;24.80;57.90;23.40;95591.00;;;;5020374;28;20223;-66
2024/03/23 12:02:30;;;;;;;542.93;493.37;;;23.60;60.40;23.10;95588.00;;;;5007936;28;20694;-65
2024/03/23 12:05:19;;;;;;;514.43;465.40;;;22.90;60.30;25.00;95581.00;;;;5011586;28;20214;-66
2024/03/23 12:08:21;;;;;;;507.07;458.00;;;22.70;64.20;23.70;95557.00;;;;5009682;28;20230;-67
2024/03/23 12:11:11;;;;;;;486.73;438.77;;;22.70;62.60;23.70;95558.00;;;;5009824;28;20216;-70